sensor_id;sensor_type;location;lat;lon;timestamp;temperature;humidity
24664;DHT22;12791;50.992;13.788;2023-05-23T00:01:08;18.20;81.60
24664;DHT22;12791;50.992;13.788;2023-05-23T00:03:34;18.20;81.50
24664;DHT22;12791;50.992;13.788;2023-05-23T00:06:01;18.20;81.30
24664;DHT22;12791;50.992;13.788;2023-05-23T00:08:28;18.20;81.10
24664;DHT22;12791;50.992;13.788;2023-05-23T00:10:55;18.20;81.10
24664;DHT22;12791;50.992;13.788;2023-05-23T00:13:23;18.20;81.60
24664;DHT22;12791;50.992;13.788;2023-05-23T00:15:50;18.20;81.90
24664;DHT22;12791;50.992;13.788;2023-05-23T00:18:16;18.20;82.20
24664;DHT22;12791;50.992;13.788;2023-05-23T00:20:44;18.20;82.40
24664;DHT22;12791;50.992;13.788;2023-05-23T00:23:11;18.20;82.50
24664;DHT22;12791;50.992;13.788;2023-05-23T00:25:43;18.20;82.50
24664;DHT22;12791;50.992;13.788;2023-05-23T00:28:13;18.30;82.60
24664;DHT22;12791;50.992;13.788;2023-05-23T00:30:41;18.30;83.20
24664;DHT22;12791;50.992;13.788;2023-05-23T00:33:08;18.30;84.40
24664;DHT22;12791;50.992;13.788;2023-05-23T00:35:38;18.30;87.60
24664;DHT22;12791;50.992;13.788;2023-05-23T00:38:04;18.30;91.60
24664;DHT22;12791;50.992;13.788;2023-05-23T00:40:32;18.20;95.20
24664;DHT22;12791;50.992;13.788;2023-05-23T00:42:59;18.20;96.10
24664;DHT22;12791;50.992;13.788;2023-05-23T00:45:26;18.20;99.90
24664;DHT22;12791;50.992;13.788;2023-05-23T00:47:54;18.10;99.90
24664;DHT22;12791;50.992;13.788;2023-05-23T00:50:21;18.10;99.90
24664;DHT22;12791;50.992;13.788;2023-05-23T00:52:48;18.00;99.90
24664;DHT22;12791;50.992;13.788;2023-05-23T00:55:15;17.90;99.90
24664;DHT22;12791;50.992;13.788;2023-05-23T00:57:42;17.90;99.90
24664;DHT22;12791;50.992;13.788;2023-05-23T01:00:10;17.90;99.90
24664;DHT22;12791;50.992;13.788;2023-05-23T01:02:39;17.90;99.90
24664;DHT22;12791;50.992;13.788;2023-05-23T01:05:09;17.80;99.90
24664;DHT22;12791;50.992;13.788;2023-05-23T01:07:38;17.80;99.90
24664;DHT22;12791;50.992;13.788;2023-05-23T01:10:06;17.80;99.90
24664;DHT22;12791;50.992;13.788;2023-05-23T01:12:57;17.80;99.90
24664;DHT22;12791;50.992;13.788;2023-05-23T01:15:32;17.80;99.90
24664;DHT22;12791;50.992;13.788;2023-05-23T01:18:01;17.80;99.90
24664;DHT22;12791;50.992;13.788;2023-05-23T01:20:34;17.80;99.90
24664;DHT22;12791;50.992;13.788;2023-05-23T01:23:18;17.80;99.90
24664;DHT22;12791;50.992;13.788;2023-05-23T01:26:12;17.80;99.90
24664;DHT22;12791;50.992;13.788;2023-05-23T01:28:45;17.80;99.90
24664;DHT22;12791;50.992;13.788;2023-05-23T01:31:14;17.80;99.90
24664;DHT22;12791;50.992;13.788;2023-05-23T01:33:43;17.80;99.90
24664;DHT22;12791;50.992;13.788;2023-05-23T01:36:12;17.80;99.90
24664;DHT22;12791;50.992;13.788;2023-05-23T01:38:39;17.80;99.90
24664;DHT22;12791;50.992;13.788;2023-05-23T01:41:05;17.80;99.90
24664;DHT22;12791;50.992;13.788;2023-05-23T01:43:32;17.70;99.90
24664;DHT22;12791;50.992;13.788;2023-05-23T01:46:00;17.70;99.90
24664;DHT22;12791;50.992;13.788;2023-05-23T01:48:28;17.70;99.90
24664;DHT22;12791;50.992;13.788;2023-05-23T01:50:57;17.60;99.90
24664;DHT22;12791;50.992;13.788;2023-05-23T01:53:24;17.60;99.90
24664;DHT22;12791;50.992;13.788;2023-05-23T01:55:52;17.50;99.90
24664;DHT22;12791;50.992;13.788;2023-05-23T01:58:18;17.50;99.90
24664;DHT22;12791;50.992;13.788;2023-05-23T02:00:45;17.50;99.90
24664;DHT22;12791;50.992;13.788;2023-05-23T02:03:13;17.50;99.90
24664;DHT22;12791;50.992;13.788;2023-05-23T02:05:40;17.40;99.90
24664;DHT22;12791;50.992;13.788;2023-05-23T02:08:07;17.40;99.90
24664;DHT22;12791;50.992;13.788;2023-05-23T02:10:33;17.40;99.90
24664;DHT22;12791;50.992;13.788;2023-05-23T02:13:00;17.30;99.90
24664;DHT22;12791;50.992;13.788;2023-05-23T02:15:26;17.30;99.90
24664;DHT22;12791;50.992;13.788;2023-05-23T02:17:53;17.30;99.90
24664;DHT22;12791;50.992;13.788;2023-05-23T02:20:21;17.30;99.90
24664;DHT22;12791;50.992;13.788;2023-05-23T02:22:47;17.30;99.90
24664;DHT22;12791;50.992;13.788;2023-05-23T02:25:14;17.30;99.90
24664;DHT22;12791;50.992;13.788;2023-05-23T02:27:41;17.40;99.90
24664;DHT22;12791;50.992;13.788;2023-05-23T02:30:08;17.40;99.90
24664;DHT22;12791;50.992;13.788;2023-05-23T02:32:35;17.40;99.90
24664;DHT22;12791;50.992;13.788;2023-05-23T02:35:02;17.40;99.90
24664;DHT22;12791;50.992;13.788;2023-05-23T02:37:31;17.40;99.90
24664;DHT22;12791;50.992;13.788;2023-05-23T02:39:57;17.40;99.90
24664;DHT22;12791;50.992;13.788;2023-05-23T02:42:24;17.40;99.90
24664;DHT22;12791;50.992;13.788;2023-05-23T02:44:50;17.40;99.90
24664;DHT22;12791;50.992;13.788;2023-05-23T02:47:17;17.40;99.90
24664;DHT22;12791;50.992;13.788;2023-05-23T02:49:44;17.40;99.90
24664;DHT22;12791;50.992;13.788;2023-05-23T02:52:10;17.40;99.90
24664;DHT22;12791;50.992;13.788;2023-05-23T02:54:38;17.40;99.90
24664;DHT22;12791;50.992;13.788;2023-05-23T02:57:05;17.40;99.90
24664;DHT22;12791;50.992;13.788;2023-05-23T02:59:32;17.30;99.90
24664;DHT22;12791;50.992;13.788;2023-05-23T03:01:58;17.30;99.90
24664;DHT22;12791;50.992;13.788;2023-05-23T03:04:25;17.20;99.90
24664;DHT22;12791;50.992;13.788;2023-05-23T03:06:51;17.20;99.90
24664;DHT22;12791;50.992;13.788;2023-05-23T03:09:18;17.20;99.90
24664;DHT22;12791;50.992;13.788;2023-05-23T03:11:47;17.20;99.90
24664;DHT22;12791;50.992;13.788;2023-05-23T03:14:13;17.10;99.90
24664;DHT22;12791;50.992;13.788;2023-05-23T03:16:40;17.10;99.90
24664;DHT22;12791;50.992;13.788;2023-05-23T03:19:07;17.10;99.90
24664;DHT22;12791;50.992;13.788;2023-05-23T03:21:33;17.20;99.90
24664;DHT22;12791;50.992;13.788;2023-05-23T03:24:00;17.20;99.90
24664;DHT22;12791;50.992;13.788;2023-05-23T03:26:27;17.10;99.90
24664;DHT22;12791;50.992;13.788;2023-05-23T03:28:56;17.10;99.90
24664;DHT22;12791;50.992;13.788;2023-05-23T03:31:22;17.10;99.90
24664;DHT22;12791;50.992;13.788;2023-05-23T03:33:49;17.10;99.90
24664;DHT22;12791;50.992;13.788;2023-05-23T03:36:16;17.10;99.90
24664;DHT22;12791;50.992;13.788;2023-05-23T03:38:42;17.10;99.90
24664;DHT22;12791;50.992;13.788;2023-05-23T03:41:09;17.10;99.90
24664;DHT22;12791;50.992;13.788;2023-05-23T03:43:36;17.00;99.90
24664;DHT22;12791;50.992;13.788;2023-05-23T03:46:03;17.00;99.90
24664;DHT22;12791;50.992;13.788;2023-05-23T03:48:30;17.00;99.90
24664;DHT22;12791;50.992;13.788;2023-05-23T03:50:57;17.00;99.90
24664;DHT22;12791;50.992;13.788;2023-05-23T03:53:23;17.00;99.90
24664;DHT22;12791;50.992;13.788;2023-05-23T03:55:50;17.00;99.90
24664;DHT22;12791;50.992;13.788;2023-05-23T03:58:18;17.00;99.90
24664;DHT22;12791;50.992;13.788;2023-05-23T04:00:45;17.00;99.90
24664;DHT22;12791;50.992;13.788;2023-05-23T04:03:12;17.10;99.90
24664;DHT22;12791;50.992;13.788;2023-05-23T04:05:41;17.00;99.90
24664;DHT22;12791;50.992;13.788;2023-05-23T04:08:08;17.00;99.90
24664;DHT22;12791;50.992;13.788;2023-05-23T04:10:34;17.10;99.90
24664;DHT22;12791;50.992;13.788;2023-05-23T04:13:01;17.10;99.90
24664;DHT22;12791;50.992;13.788;2023-05-23T04:15:28;17.10;99.90
24664;DHT22;12791;50.992;13.788;2023-05-23T04:17:54;17.10;99.90
24664;DHT22;12791;50.992;13.788;2023-05-23T04:20:23;17.10;99.90
24664;DHT22;12791;50.992;13.788;2023-05-23T04:22:50;17.20;99.90
24664;DHT22;12791;50.992;13.788;2023-05-23T04:25:16;17.10;99.90
24664;DHT22;12791;50.992;13.788;2023-05-23T04:27:44;17.10;99.90
24664;DHT22;12791;50.992;13.788;2023-05-23T04:30:12;17.10;99.90
24664;DHT22;12791;50.992;13.788;2023-05-23T04:32:42;17.10;99.90
24664;DHT22;12791;50.992;13.788;2023-05-23T04:35:09;17.10;99.90
24664;DHT22;12791;50.992;13.788;2023-05-23T04:37:37;17.10;99.90
24664;DHT22;12791;50.992;13.788;2023-05-23T04:40:04;17.10;99.90
24664;DHT22;12791;50.992;13.788;2023-05-23T04:42:31;17.10;99.90
24664;DHT22;12791;50.992;13.788;2023-05-23T04:44:58;17.10;99.90
24664;DHT22;12791;50.992;13.788;2023-05-23T04:47:26;17.10;99.90
24664;DHT22;12791;50.992;13.788;2023-05-23T04:49:53;17.10;99.90
24664;DHT22;12791;50.992;13.788;2023-05-23T04:52:21;17.20;99.90
24664;DHT22;12791;50.992;13.788;2023-05-23T04:54:49;17.20;99.90
24664;DHT22;12791;50.992;13.788;2023-05-23T04:57:18;17.20;99.90
24664;DHT22;12791;50.992;13.788;2023-05-23T04:59:45;17.20;99.90
24664;DHT22;12791;50.992;13.788;2023-05-23T05:02:11;17.20;99.90
24664;DHT22;12791;50.992;13.788;2023-05-23T05:04:38;17.20;99.90
24664;DHT22;12791;50.992;13.788;2023-05-23T05:07:05;17.30;99.90
24664;DHT22;12791;50.992;13.788;2023-05-23T05:09:32;17.30;99.90
24664;DHT22;12791;50.992;13.788;2023-05-23T05:12:00;17.30;99.90
24664;DHT22;12791;50.992;13.788;2023-05-23T05:14:26;17.30;99.90
24664;DHT22;12791;50.992;13.788;2023-05-23T05:16:53;17.30;99.90
24664;DHT22;12791;50.992;13.788;2023-05-23T05:19:21;17.40;99.90
24664;DHT22;12791;50.992;13.788;2023-05-23T05:21:48;17.40;99.90
24664;DHT22;12791;50.992;13.788;2023-05-23T05:24:15;17.40;99.90
24664;DHT22;12791;50.992;13.788;2023-05-23T05:26:41;17.40;99.90
24664;DHT22;12791;50.992;13.788;2023-05-23T05:29:09;17.50;99.90
24664;DHT22;12791;50.992;13.788;2023-05-23T05:31:36;17.50;99.90
24664;DHT22;12791;50.992;13.788;2023-05-23T05:34:03;17.50;99.90
24664;DHT22;12791;50.992;13.788;2023-05-23T05:36:29;17.60;99.90
24664;DHT22;12791;50.992;13.788;2023-05-23T05:38:56;17.70;99.90
24664;DHT22;12791;50.992;13.788;2023-05-23T05:41:23;17.80;99.90
24664;DHT22;12791;50.992;13.788;2023-05-23T05:43:51;17.80;99.90
24664;DHT22;12791;50.992;13.788;2023-05-23T05:46:19;17.90;99.90
24664;DHT22;12791;50.992;13.788;2023-05-23T05:48:45;18.00;99.90
24664;DHT22;12791;50.992;13.788;2023-05-23T05:51:12;18.10;99.90
24664;DHT22;12791;50.992;13.788;2023-05-23T05:53:39;18.10;99.90
24664;DHT22;12791;50.992;13.788;2023-05-23T05:56:05;18.10;99.90
24664;DHT22;12791;50.992;13.788;2023-05-23T05:58:33;18.20;99.90
24664;DHT22;12791;50.992;13.788;2023-05-23T06:01:00;18.20;99.90
24664;DHT22;12791;50.992;13.788;2023-05-23T06:03:28;18.20;99.90
24664;DHT22;12791;50.992;13.788;2023-05-23T06:05:54;18.20;99.90
24664;DHT22;12791;50.992;13.788;2023-05-23T06:08:21;18.20;99.90
24664;DHT22;12791;50.992;13.788;2023-05-23T06:10:48;18.20;99.90
24664;DHT22;12791;50.992;13.788;2023-05-23T06:13:15;18.30;99.90
24664;DHT22;12791;50.992;13.788;2023-05-23T06:15:42;18.30;99.90
24664;DHT22;12791;50.992;13.788;2023-05-23T06:18:09;18.40;99.90
24664;DHT22;12791;50.992;13.788;2023-05-23T06:20:37;18.40;99.90
24664;DHT22;12791;50.992;13.788;2023-05-23T06:23:04;18.40;99.90
24664;DHT22;12791;50.992;13.788;2023-05-23T06:25:31;18.40;99.90
24664;DHT22;12791;50.992;13.788;2023-05-23T06:27:57;18.40;99.90
24664;DHT22;12791;50.992;13.788;2023-05-23T06:30:25;18.40;99.90
24664;DHT22;12791;50.992;13.788;2023-05-23T06:32:53;18.40;99.90
24664;DHT22;12791;50.992;13.788;2023-05-23T06:35:20;18.30;99.90
24664;DHT22;12791;50.992;13.788;2023-05-23T06:37:48;18.30;99.90
24664;DHT22;12791;50.992;13.788;2023-05-23T06:40:14;18.20;99.90
24664;DHT22;12791;50.992;13.788;2023-05-23T06:42:41;18.20;99.90
24664;DHT22;12791;50.992;13.788;2023-05-23T06:45:08;18.20;99.90
24664;DHT22;12791;50.992;13.788;2023-05-23T06:47:35;18.20;99.90
24664;DHT22;12791;50.992;13.788;2023-05-23T06:50:02;18.20;99.90
24664;DHT22;12791;50.992;13.788;2023-05-23T06:52:29;18.20;99.90
24664;DHT22;12791;50.992;13.788;2023-05-23T06:54:57;18.20;99.90
24664;DHT22;12791;50.992;13.788;2023-05-23T06:57:23;18.10;99.90
24664;DHT22;12791;50.992;13.788;2023-05-23T06:59:50;18.20;99.90
24664;DHT22;12791;50.992;13.788;2023-05-23T07:02:16;18.20;99.90
24664;DHT22;12791;50.992;13.788;2023-05-23T07:04:43;18.20;99.90
24664;DHT22;12791;50.992;13.788;2023-05-23T07:07:10;18.20;99.90
24664;DHT22;12791;50.992;13.788;2023-05-23T07:09:37;18.30;99.90
24664;DHT22;12791;50.992;13.788;2023-05-23T07:12:05;18.20;99.90
24664;DHT22;12791;50.992;13.788;2023-05-23T07:14:32;18.30;99.90
24664;DHT22;12791;50.992;13.788;2023-05-23T07:17:00;18.30;99.90
24664;DHT22;12791;50.992;13.788;2023-05-23T07:19:26;18.30;99.90
24664;DHT22;12791;50.992;13.788;2023-05-23T07:21:53;18.40;99.90
24664;DHT22;12791;50.992;13.788;2023-05-23T07:24:19;18.40;99.90
24664;DHT22;12791;50.992;13.788;2023-05-23T07:26:46;18.50;99.90
24664;DHT22;12791;50.992;13.788;2023-05-23T07:29:14;18.50;99.90
24664;DHT22;12791;50.992;13.788;2023-05-23T07:31:40;18.50;99.90
24664;DHT22;12791;50.992;13.788;2023-05-23T07:34:07;18.50;99.90
24664;DHT22;12791;50.992;13.788;2023-05-23T07:36:33;18.50;99.90
24664;DHT22;12791;50.992;13.788;2023-05-23T07:39:02;18.40;99.90
24664;DHT22;12791;50.992;13.788;2023-05-23T07:41:28;18.50;99.90
24664;DHT22;12791;50.992;13.788;2023-05-23T07:43:55;18.40;99.90
24664;DHT22;12791;50.992;13.788;2023-05-23T07:46:23;18.40;99.90
24664;DHT22;12791;50.992;13.788;2023-05-23T07:48:49;18.40;99.90
24664;DHT22;12791;50.992;13.788;2023-05-23T07:51:16;18.40;99.90
24664;DHT22;12791;50.992;13.788;2023-05-23T07:53:45;18.50;99.90
24664;DHT22;12791;50.992;13.788;2023-05-23T07:56:12;18.50;99.90
24664;DHT22;12791;50.992;13.788;2023-05-23T07:58:39;18.60;99.90
24664;DHT22;12791;50.992;13.788;2023-05-23T08:01:06;18.60;99.90
24664;DHT22;12791;50.992;13.788;2023-05-23T08:03:39;18.70;99.90
24664;DHT22;12791;50.992;13.788;2023-05-23T08:06:06;18.80;99.90
24664;DHT22;12791;50.992;13.788;2023-05-23T08:08:34;18.80;99.90
24664;DHT22;12791;50.992;13.788;2023-05-23T08:11:01;18.90;99.90
24664;DHT22;12791;50.992;13.788;2023-05-23T08:13:27;19.00;99.90
24664;DHT22;12791;50.992;13.788;2023-05-23T08:15:54;19.00;99.90
24664;DHT22;12791;50.992;13.788;2023-05-23T08:18:20;19.10;99.90
24664;DHT22;12791;50.992;13.788;2023-05-23T08:20:48;19.20;99.90
24664;DHT22;12791;50.992;13.788;2023-05-23T08:23:16;19.30;99.90
24664;DHT22;12791;50.992;13.788;2023-05-23T08:25:43;19.40;99.90
24664;DHT22;12791;50.992;13.788;2023-05-23T08:28:09;19.40;99.90
24664;DHT22;12791;50.992;13.788;2023-05-23T08:30:36;19.30;99.90
24664;DHT22;12791;50.992;13.788;2023-05-23T08:33:03;19.30;99.90
24664;DHT22;12791;50.992;13.788;2023-05-23T08:35:29;19.30;99.90
24664;DHT22;12791;50.992;13.788;2023-05-23T08:38:00;19.20;99.90
24664;DHT22;12791;50.992;13.788;2023-05-23T08:40:29;19.30;99.90
24664;DHT22;12791;50.992;13.788;2023-05-23T08:42:57;19.30;99.90
24664;DHT22;12791;50.992;13.788;2023-05-23T08:45:23;19.30;99.90
24664;DHT22;12791;50.992;13.788;2023-05-23T08:47:51;19.30;99.90
24664;DHT22;12791;50.992;13.788;2023-05-23T08:50:18;19.30;99.90
24664;DHT22;12791;50.992;13.788;2023-05-23T08:52:49;19.40;99.90
24664;DHT22;12791;50.992;13.788;2023-05-23T08:55:21;19.40;99.90
24664;DHT22;12791;50.992;13.788;2023-05-23T08:57:49;19.30;99.90
24664;DHT22;12791;50.992;13.788;2023-05-23T09:00:16;19.20;99.90
24664;DHT22;12791;50.992;13.788;2023-05-23T09:02:45;19.10;99.90
24664;DHT22;12791;50.992;13.788;2023-05-23T09:05:12;19.10;99.90
24664;DHT22;12791;50.992;13.788;2023-05-23T09:07:39;19.00;99.90
24664;DHT22;12791;50.992;13.788;2023-05-23T09:10:07;19.00;99.90
24664;DHT22;12791;50.992;13.788;2023-05-23T09:12:36;19.00;99.90
24664;DHT22;12791;50.992;13.788;2023-05-23T09:15:03;19.00;99.90
24664;DHT22;12791;50.992;13.788;2023-05-23T09:17:30;19.00;99.90
24664;DHT22;12791;50.992;13.788;2023-05-23T09:19:57;18.90;99.90
24664;DHT22;12791;50.992;13.788;2023-05-23T09:22:25;18.90;99.90
24664;DHT22;12791;50.992;13.788;2023-05-23T09:24:52;18.90;99.90
24664;DHT22;12791;50.992;13.788;2023-05-23T09:27:19;18.90;99.90
24664;DHT22;12791;50.992;13.788;2023-05-23T09:29:48;18.90;99.90
24664;DHT22;12791;50.992;13.788;2023-05-23T09:32:16;18.90;99.90
24664;DHT22;12791;50.992;13.788;2023-05-23T09:34:54;18.80;99.90
24664;DHT22;12791;50.992;13.788;2023-05-23T09:37:24;18.90;99.90
24664;DHT22;12791;50.992;13.788;2023-05-23T09:39:54;18.90;99.90
24664;DHT22;12791;50.992;13.788;2023-05-23T09:42:21;18.80;99.90
24664;DHT22;12791;50.992;13.788;2023-05-23T09:44:49;18.90;99.90
24664;DHT22;12791;50.992;13.788;2023-05-23T09:47:16;18.90;99.90
24664;DHT22;12791;50.992;13.788;2023-05-23T09:49:43;18.90;99.90
24664;DHT22;12791;50.992;13.788;2023-05-23T09:52:09;18.90;99.90
24664;DHT22;12791;50.992;13.788;2023-05-23T09:54:36;18.90;99.90
24664;DHT22;12791;50.992;13.788;2023-05-23T09:57:06;18.80;99.90
24664;DHT22;12791;50.992;13.788;2023-05-23T09:59:34;18.70;99.90
24664;DHT22;12791;50.992;13.788;2023-05-23T10:02:06;18.70;99.90
24664;DHT22;12791;50.992;13.788;2023-05-23T10:04:34;18.60;99.90
24664;DHT22;12791;50.992;13.788;2023-05-23T10:07:06;18.60;99.90
24664;DHT22;12791;50.992;13.788;2023-05-23T10:09:37;18.50;99.90
24664;DHT22;12791;50.992;13.788;2023-05-23T10:15:08;18.50;99.90
24664;DHT22;12791;50.992;13.788;2023-05-23T10:20:28;18.40;99.90
24664;DHT22;12791;50.992;13.788;2023-05-23T10:22:58;18.40;99.90
24664;DHT22;12791;50.992;13.788;2023-05-23T10:25:25;18.40;99.90
24664;DHT22;12791;50.992;13.788;2023-05-23T10:27:54;18.40;99.90
24664;DHT22;12791;50.992;13.788;2023-05-23T10:30:23;18.40;99.90
24664;DHT22;12791;50.992;13.788;2023-05-23T10:32:51;18.50;99.90
24664;DHT22;12791;50.992;13.788;2023-05-23T10:35:24;18.50;99.90
24664;DHT22;12791;50.992;13.788;2023-05-23T10:37:58;18.50;99.90
24664;DHT22;12791;50.992;13.788;2023-05-23T10:40:33;18.60;99.90
24664;DHT22;12791;50.992;13.788;2023-05-23T10:43:03;18.70;99.90
24664;DHT22;12791;50.992;13.788;2023-05-23T10:45:39;18.80;99.90
24664;DHT22;12791;50.992;13.788;2023-05-23T10:48:20;18.80;99.90
24664;DHT22;12791;50.992;13.788;2023-05-23T10:51:04;18.90;99.90
24664;DHT22;12791;50.992;13.788;2023-05-23T10:53:33;18.80;99.90
24664;DHT22;12791;50.992;13.788;2023-05-23T10:56:00;18.90;99.90
24664;DHT22;12791;50.992;13.788;2023-05-23T10:58:29;18.90;99.90
24664;DHT22;12791;50.992;13.788;2023-05-23T11:00:59;18.90;99.90
24664;DHT22;12791;50.992;13.788;2023-05-23T11:03:32;18.90;99.90
24664;DHT22;12791;50.992;13.788;2023-05-23T11:06:00;18.90;99.90
24664;DHT22;12791;50.992;13.788;2023-05-23T11:08:28;18.90;99.90
24664;DHT22;12791;50.992;13.788;2023-05-23T11:11:03;18.90;99.90
24664;DHT22;12791;50.992;13.788;2023-05-23T11:13:58;18.80;99.90
24664;DHT22;12791;50.992;13.788;2023-05-23T11:16:27;18.70;99.90
24664;DHT22;12791;50.992;13.788;2023-05-23T11:19:21;18.70;99.90
24664;DHT22;12791;50.992;13.788;2023-05-23T11:21:56;18.70;99.90
24664;DHT22;12791;50.992;13.788;2023-05-23T11:24:27;18.80;99.90
24664;DHT22;12791;50.992;13.788;2023-05-23T11:27:11;18.90;99.90
24664;DHT22;12791;50.992;13.788;2023-05-23T11:29:38;19.00;99.90
24664;DHT22;12791;50.992;13.788;2023-05-23T11:32:09;19.20;99.90
24664;DHT22;12791;50.992;13.788;2023-05-23T11:34:38;19.30;99.90
24664;DHT22;12791;50.992;13.788;2023-05-23T11:37:05;19.30;99.90
24664;DHT22;12791;50.992;13.788;2023-05-23T11:39:31;19.30;99.90
24664;DHT22;12791;50.992;13.788;2023-05-23T11:41:58;19.40;99.90
24664;DHT22;12791;50.992;13.788;2023-05-23T11:44:25;19.40;99.90
24664;DHT22;12791;50.992;13.788;2023-05-23T11:46:58;19.50;99.90
24664;DHT22;12791;50.992;13.788;2023-05-23T11:49:27;19.50;99.90
24664;DHT22;12791;50.992;13.788;2023-05-23T11:51:56;19.50;99.90
24664;DHT22;12791;50.992;13.788;2023-05-23T11:54:23;19.50;99.90
24664;DHT22;12791;50.992;13.788;2023-05-23T11:56:50;19.50;99.90
24664;DHT22;12791;50.992;13.788;2023-05-23T11:59:17;19.50;99.90
24664;DHT22;12791;50.992;13.788;2023-05-23T12:01:44;19.50;99.90
24664;DHT22;12791;50.992;13.788;2023-05-23T12:04:10;19.40;99.90
24664;DHT22;12791;50.992;13.788;2023-05-23T12:06:38;19.40;99.90
24664;DHT22;12791;50.992;13.788;2023-05-23T12:09:07;19.50;99.90
24664;DHT22;12791;50.992;13.788;2023-05-23T12:11:38;19.60;99.90
24664;DHT22;12791;50.992;13.788;2023-05-23T12:14:05;19.70;99.90
24664;DHT22;12791;50.992;13.788;2023-05-23T12:16:32;19.80;99.90
24664;DHT22;12791;50.992;13.788;2023-05-23T12:18:59;19.90;99.90
24664;DHT22;12791;50.992;13.788;2023-05-23T12:21:39;19.90;99.90
24664;DHT22;12791;50.992;13.788;2023-05-23T12:24:13;19.90;99.90
24664;DHT22;12791;50.992;13.788;2023-05-23T12:26:51;19.80;99.90
24664;DHT22;12791;50.992;13.788;2023-05-23T12:29:19;19.80;99.90
24664;DHT22;12791;50.992;13.788;2023-05-23T12:31:50;19.80;99.90
24664;DHT22;12791;50.992;13.788;2023-05-23T12:34:18;19.80;99.90
24664;DHT22;12791;50.992;13.788;2023-05-23T12:36:45;19.80;99.90
24664;DHT22;12791;50.992;13.788;2023-05-23T12:39:15;19.80;99.90
24664;DHT22;12791;50.992;13.788;2023-05-23T12:41:41;19.80;99.90
24664;DHT22;12791;50.992;13.788;2023-05-23T12:44:09;19.80;99.90
24664;DHT22;12791;50.992;13.788;2023-05-23T12:46:38;19.80;99.90
24664;DHT22;12791;50.992;13.788;2023-05-23T12:49:05;19.70;99.90
24664;DHT22;12791;50.992;13.788;2023-05-23T12:51:32;19.70;99.90
24664;DHT22;12791;50.992;13.788;2023-05-23T12:53:58;19.70;99.90
24664;DHT22;12791;50.992;13.788;2023-05-23T12:56:26;19.70;99.90
24664;DHT22;12791;50.992;13.788;2023-05-23T12:58:53;19.70;99.90
24664;DHT22;12791;50.992;13.788;2023-05-23T13:01:20;19.70;99.90
24664;DHT22;12791;50.992;13.788;2023-05-23T13:03:47;19.70;99.90
24664;DHT22;12791;50.992;13.788;2023-05-23T13:06:13;19.60;99.90
24664;DHT22;12791;50.992;13.788;2023-05-23T13:08:40;19.50;99.90
24664;DHT22;12791;50.992;13.788;2023-05-23T13:11:07;19.40;99.90
24664;DHT22;12791;50.992;13.788;2023-05-23T13:13:35;19.40;99.90
24664;DHT22;12791;50.992;13.788;2023-05-23T13:16:02;19.30;99.90
24664;DHT22;12791;50.992;13.788;2023-05-23T13:18:28;19.30;99.90
24664;DHT22;12791;50.992;13.788;2023-05-23T13:20:55;19.20;99.90
24664;DHT22;12791;50.992;13.788;2023-05-23T13:23:22;19.20;99.90
24664;DHT22;12791;50.992;13.788;2023-05-23T13:25:50;19.10;99.90
24664;DHT22;12791;50.992;13.788;2023-05-23T13:28:16;19.10;99.90
24664;DHT22;12791;50.992;13.788;2023-05-23T13:30:44;19.00;99.90
24664;DHT22;12791;50.992;13.788;2023-05-23T13:33:11;18.90;99.90
24664;DHT22;12791;50.992;13.788;2023-05-23T13:35:38;18.80;99.90
24664;DHT22;12791;50.992;13.788;2023-05-23T13:38:04;18.70;99.90
24664;DHT22;12791;50.992;13.788;2023-05-23T13:40:31;18.60;99.90
24664;DHT22;12791;50.992;13.788;2023-05-23T13:42:58;18.50;99.90
24664;DHT22;12791;50.992;13.788;2023-05-23T13:45:25;18.40;99.90
24664;DHT22;12791;50.992;13.788;2023-05-23T13:47:53;18.30;99.90
24664;DHT22;12791;50.992;13.788;2023-05-23T13:50:19;18.20;99.90
24664;DHT22;12791;50.992;13.788;2023-05-23T13:52:46;18.20;99.90
24664;DHT22;12791;50.992;13.788;2023-05-23T13:55:12;18.10;99.90
24664;DHT22;12791;50.992;13.788;2023-05-23T13:57:39;18.00;99.90
24664;DHT22;12791;50.992;13.788;2023-05-23T14:00:06;18.00;99.90
24664;DHT22;12791;50.992;13.788;2023-05-23T14:02:34;17.90;99.90
24664;DHT22;12791;50.992;13.788;2023-05-23T14:05:02;17.90;99.90
24664;DHT22;12791;50.992;13.788;2023-05-23T14:07:29;17.80;99.90
24664;DHT22;12791;50.992;13.788;2023-05-23T14:09:56;17.70;99.90
24664;DHT22;12791;50.992;13.788;2023-05-23T14:12:24;17.60;99.90
24664;DHT22;12791;50.992;13.788;2023-05-23T14:14:50;17.50;99.90
24664;DHT22;12791;50.992;13.788;2023-05-23T14:17:17;17.40;99.90
24664;DHT22;12791;50.992;13.788;2023-05-23T14:19:44;17.30;99.90
24664;DHT22;12791;50.992;13.788;2023-05-23T14:22:12;17.30;99.90
24664;DHT22;12791;50.992;13.788;2023-05-23T14:24:38;17.30;99.90
24664;DHT22;12791;50.992;13.788;2023-05-23T14:27:05;17.40;99.90
24664;DHT22;12791;50.992;13.788;2023-05-23T14:29:32;17.40;99.90
24664;DHT22;12791;50.992;13.788;2023-05-23T14:31:59;17.40;99.90
24664;DHT22;12791;50.992;13.788;2023-05-23T14:34:27;17.40;99.90
24664;DHT22;12791;50.992;13.788;2023-05-23T14:36:53;17.30;99.90
24664;DHT22;12791;50.992;13.788;2023-05-23T14:39:21;17.30;99.90
24664;DHT22;12791;50.992;13.788;2023-05-23T14:41:49;17.30;99.90
24664;DHT22;12791;50.992;13.788;2023-05-23T14:44:16;17.30;99.90
24664;DHT22;12791;50.992;13.788;2023-05-23T14:46:42;17.30;99.90
24664;DHT22;12791;50.992;13.788;2023-05-23T14:49:12;17.30;99.90
24664;DHT22;12791;50.992;13.788;2023-05-23T14:51:39;17.20;99.90
24664;DHT22;12791;50.992;13.788;2023-05-23T14:54:05;17.10;99.90
24664;DHT22;12791;50.992;13.788;2023-05-23T14:56:35;17.20;99.90
24664;DHT22;12791;50.992;13.788;2023-05-23T14:59:02;17.10;99.90
24664;DHT22;12791;50.992;13.788;2023-05-23T15:01:28;17.10;99.90
24664;DHT22;12791;50.992;13.788;2023-05-23T15:03:55;17.00;99.90
24664;DHT22;12791;50.992;13.788;2023-05-23T15:06:22;17.00;99.90
24664;DHT22;12791;50.992;13.788;2023-05-23T15:08:48;17.00;99.90
24664;DHT22;12791;50.992;13.788;2023-05-23T15:11:16;17.00;99.90
24664;DHT22;12791;50.992;13.788;2023-05-23T15:13:44;17.00;99.90
24664;DHT22;12791;50.992;13.788;2023-05-23T15:16:11;17.00;99.90
24664;DHT22;12791;50.992;13.788;2023-05-23T15:18:38;17.00;99.90
24664;DHT22;12791;50.992;13.788;2023-05-23T15:21:05;17.00;99.90
24664;DHT22;12791;50.992;13.788;2023-05-23T15:23:31;17.10;99.90
24664;DHT22;12791;50.992;13.788;2023-05-23T15:25:58;17.10;99.90